sensor_id;sensor_type;location;lat;lon;timestamp;pressure;altitude;pressure_sealevel;temperature;humidity
6216;BME280;3141;49.234;9.326;2023-03-23T00:00:11;99015.31;;;17.51;47.90
6216;BME280;3141;49.234;9.326;2023-03-23T00:00:54;99017.16;;;17.44;48.00
6216;BME280;3141;49.234;9.326;2023-03-23T00:01:36;99011.59;;;17.45;48.17
6216;BME280;3141;49.234;9.326;2023-03-23T00:02:19;99014.47;;;17.50;47.96
6216;BME280;3141;49.234;9.326;2023-03-23T00:03:01;99013.56;;;17.63;47.84
6216;BME280;3141;49.234;9.326;2023-03-23T00:03:43;99019.25;;;17.73;47.43
6216;BME280;3141;49.234;9.326;2023-03-23T00:04:26;99019.00;;;17.43;47.93
6216;BME280;3141;49.234;9.326;2023-03-23T00:05:11;99012.88;;;17.43;48.25
6216;BME280;3141;49.234;9.326;2023-03-23T00:05:55;99019.00;;;17.43;47.98
6216;BME280;3141;49.234;9.326;2023-03-23T00:06:41;99016.00;;;17.33;48.37
6216;BME280;3141;49.234;9.326;2023-03-23T00:07:24;99015.38;;;17.31;47.92
6216;BME280;3141;49.234;9.326;2023-03-23T00:08:09;99011.59;;;17.45;47.60
6216;BME280;3141;49.234;9.326;2023-03-23T00:08:54;99016.53;;;17.48;47.77
6216;BME280;3141;49.234;9.326;2023-03-23T00:09:41;99019.53;;;17.65;47.65
6216;BME280;3141;49.234;9.326;2023-03-23T00:10:23;99020.00;;;17.55;47.38
6216;BME280;3141;49.234;9.326;2023-03-23T00:11:06;99011.19;;;17.55;47.44
6216;BME280;3141;49.234;9.326;2023-03-23T00:11:50;99015.31;;;17.44;47.87
6216;BME280;3141;49.234;9.326;2023-03-23T00:12:33;99008.16;;;17.38;47.92
6216;BME280;3141;49.234;9.326;2023-03-23T00:13:15;99009.25;;;17.24;47.79
6216;BME280;3141;49.234;9.326;2023-03-23T00:14:01;99004.69;;;17.31;47.48
6216;BME280;3141;49.234;9.326;2023-03-23T00:14:44;99011.94;;;17.24;47.63
6216;BME280;3141;49.234;9.326;2023-03-23T00:15:26;99013.28;;;17.46;47.39
6216;BME280;3141;49.234;9.326;2023-03-23T00:16:09;99006.25;;;17.45;47.36
6216;BME280;3141;49.234;9.326;2023-03-23T00:16:59;99009.75;;;17.46;47.21
6216;BME280;3141;49.234;9.326;2023-03-23T00:17:41;99013.28;;;17.46;47.15
6216;BME280;3141;49.234;9.326;2023-03-23T00:18:25;99018.38;;;17.54;46.98
6216;BME280;3141;49.234;9.326;2023-03-23T00:19:11;99014.69;;;17.49;47.15
6216;BME280;3141;49.234;9.326;2023-03-23T00:19:55;99017.16;;;17.44;47.24
6216;BME280;3141;49.234;9.326;2023-03-23T00:20:38;99020.50;;;17.39;47.09
6216;BME280;3141;49.234;9.326;2023-03-23T00:21:22;99012.84;;;17.49;47.34
6216;BME280;3141;49.234;9.326;2023-03-23T00:22:16;99013.09;;;17.41;47.57
6216;BME280;3141;49.234;9.326;2023-03-23T00:23:01;99016.53;;;17.55;47.33
6216;BME280;3141;49.234;9.326;2023-03-23T00:23:44;99011.00;;;17.43;47.35
6216;BME280;3141;49.234;9.326;2023-03-23T00:24:26;99020.00;;;17.55;47.28
6216;BME280;3141;49.234;9.326;2023-03-23T00:25:09;99021.03;;;17.54;47.28
6216;BME280;3141;49.234;9.326;2023-03-23T00:25:54;99016.13;;;17.51;47.62
6216;BME280;3141;49.234;9.326;2023-03-23T00:26:40;99022.47;;;17.57;47.54
6216;BME280;3141;49.234;9.326;2023-03-23T00:27:22;99013.06;;;17.48;47.21
6216;BME280;3141;49.234;9.326;2023-03-23T00:28:05;99019.44;;;17.47;47.32
6216;BME280;3141;49.234;9.326;2023-03-23T00:28:47;99014.25;;;17.52;47.84
6216;BME280;3141;49.234;9.326;2023-03-23T00:29:29;99018.19;;;17.49;47.48
6216;BME280;3141;49.234;9.326;2023-03-23T00:30:12;99018.16;;;17.56;47.38
6216;BME280;3141;49.234;9.326;2023-03-23T00:31:02;99016.13;;;17.51;47.47
6216;BME280;3141;49.234;9.326;2023-03-23T00:31:45;99012.09;;;17.36;47.76
6216;BME280;3141;49.234;9.326;2023-03-23T00:32:30;99014.88;;;17.54;47.85
6216;BME280;3141;49.234;9.326;2023-03-23T00:33:13;99009.97;;;17.51;47.50
6216;BME280;3141;49.234;9.326;2023-03-23T00:33:55;99009.56;;;17.47;47.60
6216;BME280;3141;49.234;9.326;2023-03-23T00:34:39;99014.88;;;17.54;47.53
6216;BME280;3141;49.234;9.326;2023-03-23T00:35:22;99008.63;;;17.66;47.50
6216;BME280;3141;49.234;9.326;2023-03-23T00:36:05;99006.56;;;17.68;47.32
6216;BME280;3141;49.234;9.326;2023-03-23T00:36:52;99005.94;;;17.66;47.24
6216;BME280;3141;49.234;9.326;2023-03-23T00:37:41;99005.84;;;17.55;47.53
6216;BME280;3141;49.234;9.326;2023-03-23T00:38:23;98996.75;;;17.56;47.90
6216;BME280;3141;49.234;9.326;2023-03-23T00:39:06;98997.47;;;17.69;47.33
6216;BME280;3141;49.234;9.326;2023-03-23T00:39:48;99007.22;;;17.57;47.84
6216;BME280;3141;49.234;9.326;2023-03-23T00:40:33;98996.63;;;17.75;47.14
6216;BME280;3141;49.234;9.326;2023-03-23T00:41:17;99001.81;;;17.70;47.46
6216;BME280;3141;49.234;9.326;2023-03-23T00:42:00;98995.94;;;17.55;47.44
6216;BME280;3141;49.234;9.326;2023-03-23T00:42:45;98997.97;;;17.60;47.48
6216;BME280;3141;49.234;9.326;2023-03-23T00:43:28;98991.47;;;17.49;47.68
6216;BME280;3141;49.234;9.326;2023-03-23T00:44:11;98989.41;;;17.51;47.76
6216;BME280;3141;49.234;9.326;2023-03-23T00:44:58;98986.56;;;17.46;47.87
6216;BME280;3141;49.234;9.326;2023-03-23T00:45:43;98986.91;;;17.56;47.76
6216;BME280;3141;49.234;9.326;2023-03-23T00:46:35;98983.69;;;17.48;47.74
6216;BME280;3141;49.234;9.326;2023-03-23T00:47:27;98979.13;;;17.48;47.87
6216;BME280;3141;49.234;9.326;2023-03-23T00:48:09;98984.84;;;17.52;47.69
6216;BME280;3141;49.234;9.326;2023-03-23T00:48:55;98984.00;;;17.58;48.04
6216;BME280;3141;49.234;9.326;2023-03-23T00:49:38;98983.94;;;17.64;47.43
6216;BME280;3141;49.234;9.326;2023-03-23T00:50:21;98980.03;;;17.67;47.62
6216;BME280;3141;49.234;9.326;2023-03-23T00:51:03;98982.97;;;17.59;47.52
6216;BME280;3141;49.234;9.326;2023-03-23T00:51:48;98986.00;;;17.69;47.54
6216;BME280;3141;49.234;9.326;2023-03-23T00:52:30;98977.53;;;17.72;47.57
6216;BME280;3141;49.234;9.326;2023-03-23T00:53:13;98975.72;;;17.66;47.60
6216;BME280;3141;49.234;9.326;2023-03-23T00:53:55;98977.63;;;17.59;47.50
6216;BME280;3141;49.234;9.326;2023-03-23T00:54:38;98970.47;;;17.53;47.04
6216;BME280;3141;49.234;9.326;2023-03-23T00:55:20;98976.59;;;17.60;47.55
6216;BME280;3141;49.234;9.326;2023-03-23T00:56:03;98977.38;;;17.67;47.37
6216;BME280;3141;49.234;9.326;2023-03-23T00:56:45;98971.19;;;17.66;47.29
6216;BME280;3141;49.234;9.326;2023-03-23T00:57:27;98981.28;;;17.64;46.84
6216;BME280;3141;49.234;9.326;2023-03-23T00:58:10;98972.81;;;17.67;46.82
6216;BME280;3141;49.234;9.326;2023-03-23T00:58:53;98975.28;;;17.69;47.50
6216;BME280;3141;49.234;9.326;2023-03-23T00:59:35;98970.13;;;17.67;47.46
6216;BME280;3141;49.234;9.326;2023-03-23T01:00:18;98970.13;;;17.67;47.35
6216;BME280;3141;49.234;9.326;2023-03-23T01:01:01;98970.97;;;17.68;47.38
6216;BME280;3141;49.234;9.326;2023-03-23T01:01:44;98965.06;;;17.59;47.80
6216;BME280;3141;49.234;9.326;2023-03-23T01:02:26;98962.56;;;17.64;47.52
6216;BME280;3141;49.234;9.326;2023-03-23T01:03:09;98967.06;;;17.70;46.88
6216;BME280;3141;49.234;9.326;2023-03-23T01:04:01;98962.31;;;17.72;47.12
6216;BME280;3141;49.234;9.326;2023-03-23T01:04:46;98965.84;;;17.66;47.20
6216;BME280;3141;49.234;9.326;2023-03-23T01:05:29;98959.06;;;17.64;47.39
6216;BME280;3141;49.234;9.326;2023-03-23T01:06:13;98955.75;;;17.68;47.21
6216;BME280;3141;49.234;9.326;2023-03-23T01:06:56;98957.59;;;17.68;47.12
6216;BME280;3141;49.234;9.326;2023-03-23T01:07:38;98954.94;;;17.68;46.99
6216;BME280;3141;49.234;9.326;2023-03-23T01:08:21;98953.53;;;17.65;47.11
6216;BME280;3141;49.234;9.326;2023-03-23T01:09:05;98953.25;;;17.73;46.92
6216;BME280;3141;49.234;9.326;2023-03-23T01:09:48;98947.91;;;17.73;46.96
6216;BME280;3141;49.234;9.326;2023-03-23T01:10:31;98951.28;;;17.62;47.23
6216;BME280;3141;49.234;9.326;2023-03-23T01:11:16;98947.34;;;17.65;47.64
6216;BME280;3141;49.234;9.326;2023-03-23T01:11:58;98947.59;;;17.63;47.00
6216;BME280;3141;49.234;9.326;2023-03-23T01:12:40;98943.47;;;17.61;46.91
6216;BME280;3141;49.234;9.326;2023-03-23T01:13:23;98945.94;;;17.62;46.85
6216;BME280;3141;49.234;9.326;2023-03-23T01:14:05;98942.88;;;17.59;47.17
6216;BME280;3141;49.234;9.326;2023-03-23T01:14:47;98945.00;;;17.50;46.79
6216;BME280;3141;49.234;9.326;2023-03-23T01:15:30;98947.41;;;17.58;47.08
6216;BME280;3141;49.234;9.326;2023-03-23T01:16:12;98949.03;;;17.59;47.17
6216;BME280;3141;49.234;9.326;2023-03-23T01:16:55;98941.84;;;17.60;47.17
6216;BME280;3141;49.234;9.326;2023-03-23T01:17:37;98944.69;;;17.65;47.16
6216;BME280;3141;49.234;9.326;2023-03-23T01:18:20;98938.25;;;17.72;46.95
6216;BME280;3141;49.234;9.326;2023-03-23T01:19:02;98950.25;;;17.63;46.88
6216;BME280;3141;49.234;9.326;2023-03-23T01:19:45;98945.28;;;17.67;46.65
6216;BME280;3141;49.234;9.326;2023-03-23T01:20:27;98949.38;;;17.69;46.68
6216;BME280;3141;49.234;9.326;2023-03-23T01:21:13;98949.25;;;17.82;46.35
6216;BME280;3141;49.234;9.326;2023-03-23T01:21:57;98948.81;;;17.85;46.43
6216;BME280;3141;49.234;9.326;2023-03-23T01:22:40;98953.13;;;17.86;46.67
6216;BME280;3141;49.234;9.326;2023-03-23T01:23:23;98950.81;;;17.90;46.53
6216;BME280;3141;49.234;9.326;2023-03-23T01:24:06;98950.41;;;17.93;46.42
6216;BME280;3141;49.234;9.326;2023-03-23T01:24:48;98948.00;;;17.85;46.85
6216;BME280;3141;49.234;9.326;2023-03-23T01:25:34;98943.31;;;17.80;46.66
6216;BME280;3141;49.234;9.326;2023-03-23T01:26:20;98940.72;;;17.74;46.93
6216;BME280;3141;49.234;9.326;2023-03-23T01:27:03;98937.03;;;17.68;46.88
6216;BME280;3141;49.234;9.326;2023-03-23T01:27:48;98940.31;;;17.70;47.06
6216;BME280;3141;49.234;9.326;2023-03-23T01:28:31;98943.94;;;17.76;46.94
6216;BME280;3141;49.234;9.326;2023-03-23T01:29:13;98945.53;;;17.83;46.58
6216;BME280;3141;49.234;9.326;2023-03-23T01:29:55;98937.06;;;17.86;46.51
6216;BME280;3141;49.234;9.326;2023-03-23T01:30:38;98934.34;;;17.93;46.45
6216;BME280;3141;49.234;9.326;2023-03-23T01:31:23;98946.69;;;17.94;46.55
6216;BME280;3141;49.234;9.326;2023-03-23T01:32:05;98938.28;;;17.90;46.35
6216;BME280;3141;49.234;9.326;2023-03-23T01:32:48;98938.72;;;17.87;46.52
6216;BME280;3141;49.234;9.326;2023-03-23T01:33:32;98938.94;;;17.86;46.82
6216;BME280;3141;49.234;9.326;2023-03-23T01:34:14;98933.81;;;17.84;47.01
6216;BME280;3141;49.234;9.326;2023-03-23T01:34:57;98932.16;;;17.83;46.73
6216;BME280;3141;49.234;9.326;2023-03-23T01:35:39;98935.28;;;17.80;46.88
6216;BME280;3141;49.234;9.326;2023-03-23T01:36:27;98931.53;;;17.63;46.62
6216;BME280;3141;49.234;9.326;2023-03-23T01:37:10;98929.34;;;17.78;46.13
6216;BME280;3141;49.234;9.326;2023-03-23T01:37:54;98933.59;;;17.86;46.24
6216;BME280;3141;49.234;9.326;2023-03-23T01:38:36;98937.06;;;17.86;46.08
6216;BME280;3141;49.234;9.326;2023-03-23T01:39:19;98928.63;;;17.89;46.45
6216;BME280;3141;49.234;9.326;2023-03-23T01:40:01;98930.56;;;17.82;46.37
6216;BME280;3141;49.234;9.326;2023-03-23T01:40:44;98931.56;;;17.81;46.19
6216;BME280;3141;49.234;9.326;2023-03-23T01:41:26;98924.59;;;17.80;46.20
6216;BME280;3141;49.234;9.326;2023-03-23T01:42:09;98919.56;;;17.90;45.93
6216;BME280;3141;49.234;9.326;2023-03-23T01:42:52;98922.69;;;18.05;45.65
6216;BME280;3141;49.234;9.326;2023-03-23T01:43:34;98926.13;;;18.12;45.66
6216;BME280;3141;49.234;9.326;2023-03-23T01:45:21;98920.47;;;18.02;46.02
6216;BME280;3141;49.234;9.326;2023-03-23T01:46:04;98917.94;;;18.07;45.85
6216;BME280;3141;49.234;9.326;2023-03-23T01:46:47;98917.78;;;18.02;46.16
6216;BME280;3141;49.234;9.326;2023-03-23T01:47:29;98912.91;;;17.99;45.65
6216;BME280;3141;49.234;9.326;2023-03-23T01:48:24;98910.97;;;18.06;45.88
6216;BME280;3141;49.234;9.326;2023-03-23T01:49:10;98915.25;;;18.07;45.89
6216;BME280;3141;49.234;9.326;2023-03-23T01:49:53;98919.38;;;18.10;45.87
6216;BME280;3141;49.234;9.326;2023-03-23T01:50:41;98920.31;;;17.97;46.27
6216;BME280;3141;49.234;9.326;2023-03-23T01:51:27;98918.09;;;17.94;46.41
6216;BME280;3141;49.234;9.326;2023-03-23T01:52:19;98919.09;;;17.75;46.39
6216;BME280;3141;49.234;9.326;2023-03-23T01:53:05;98917.94;;;17.89;46.52
6216;BME280;3141;49.234;9.326;2023-03-23T01:53:54;98910.34;;;17.86;47.17
6216;BME280;3141;49.234;9.326;2023-03-23T01:54:38;98914.78;;;17.74;47.52
6216;BME280;3141;49.234;9.326;2023-03-23T01:55:24;98918.88;;;17.77;47.22
6216;BME280;3141;49.234;9.326;2023-03-23T01:56:09;98914.50;;;17.82;46.88
6216;BME280;3141;49.234;9.326;2023-03-23T01:57:04;98918.31;;;17.93;46.55
6216;BME280;3141;49.234;9.326;2023-03-23T01:57:49;98917.72;;;17.91;46.33
6216;BME280;3141;49.234;9.326;2023-03-23T01:58:33;98915.41;;;17.94;46.56
6216;BME280;3141;49.234;9.326;2023-03-23T01:59:17;98924.16;;;17.83;46.68
6216;BME280;3141;49.234;9.326;2023-03-23T02:00:05;98925.34;;;17.87;46.50
6216;BME280;3141;49.234;9.326;2023-03-23T02:00:50;98921.63;;;17.88;46.59
6216;BME280;3141;49.234;9.326;2023-03-23T02:01:33;98914.22;;;17.90;47.10
6216;BME280;3141;49.234;9.326;2023-03-23T02:02:20;98912.44;;;17.84;47.19
6216;BME280;3141;49.234;9.326;2023-03-23T02:03:03;98914.06;;;17.85;47.27
6216;BME280;3141;49.234;9.326;2023-03-23T02:03:46;98917.13;;;17.89;46.94
6216;BME280;3141;49.234;9.326;2023-03-23T02:04:30;98920.06;;;17.81;47.01
6216;BME280;3141;49.234;9.326;2023-03-23T02:05:19;98917.56;;;17.86;46.83
6216;BME280;3141;49.234;9.326;2023-03-23T02:06:03;98916.13;;;17.65;47.20
6216;BME280;3141;49.234;9.326;2023-03-23T02:06:45;98921.00;;;17.68;47.03
6216;BME280;3141;49.234;9.326;2023-03-23T02:07:28;98918.94;;;17.70;47.03
6216;BME280;3141;49.234;9.326;2023-03-23T02:08:11;98912.38;;;17.66;46.93
6216;BME280;3141;49.234;9.326;2023-03-23T02:08:56;98914.19;;;17.72;47.17
6216;BME280;3141;49.234;9.326;2023-03-23T02:09:39;98918.66;;;17.78;46.90
6216;BME280;3141;49.234;9.326;2023-03-23T02:10:22;98911.53;;;17.72;46.81
6216;BME280;3141;49.234;9.326;2023-03-23T02:11:16;98911.88;;;17.76;47.02
6216;BME280;3141;49.234;9.326;2023-03-23T02:11:58;98908.56;;;17.80;47.08
6216;BME280;3141;49.234;9.326;2023-03-23T02:12:41;98907.13;;;17.78;47.49
6216;BME280;3141;49.234;9.326;2023-03-23T02:13:23;98907.91;;;17.60;47.49
6216;BME280;3141;49.234;9.326;2023-03-23T02:14:06;98901.25;;;17.45;47.82
6216;BME280;3141;49.234;9.326;2023-03-23T02:14:50;98911.19;;;17.62;47.61
6216;BME280;3141;49.234;9.326;2023-03-23T02:15:54;98904.16;;;17.68;47.69
6216;BME280;3141;49.234;9.326;2023-03-23T02:17:56;98908.78;;;17.79;47.65
6216;BME280;3141;49.234;9.326;2023-03-23T02:19:00;98912.00;;;17.87;47.32
6216;BME280;3141;49.234;9.326;2023-03-23T02:24:03;98913.16;;;17.73;47.58
6216;BME280;3141;49.234;9.326;2023-03-23T02:30:43;98894.28;;;17.68;47.79
6216;BME280;3141;49.234;9.326;2023-03-23T02:31:42;98899.63;;;17.68;47.50
6216;BME280;3141;49.234;9.326;2023-03-23T02:33:59;98892.69;;;17.61;47.87
6216;BME280;3141;49.234;9.326;2023-03-23T02:34:46;98888.63;;;17.58;47.70
6216;BME280;3141;49.234;9.326;2023-03-23T02:35:36;98891.72;;;17.55;47.80
6216;BME280;3141;49.234;9.326;2023-03-23T02:36:53;98885.97;;;17.76;47.42
6216;BME280;3141;49.234;9.326;2023-03-23T02:37:43;98884.78;;;17.72;47.30
6216;BME280;3141;49.234;9.326;2023-03-23T02:38:33;98875.50;;;17.75;47.47
6216;BME280;3141;49.234;9.326;2023-03-23T02:39:33;98875.53;;;17.50;48.63
6216;BME280;3141;49.234;9.326;2023-03-23T02:40:21;98860.91;;;17.53;48.18
6216;BME280;3141;49.234;9.326;2023-03-23T02:41:07;98863.28;;;17.36;48.25
6216;BME280;3141;49.234;9.326;2023-03-23T02:41:54;98858.00;;;17.29;48.70
6216;BME280;3141;49.234;9.326;2023-03-23T02:42:40;98860.75;;;17.48;47.77
6216;BME280;3141;49.234;9.326;2023-03-23T02:43:27;98861.91;;;17.58;48.05
6216;BME280;3141;49.234;9.326;2023-03-23T02:44:12;98859.38;;;17.63;47.74
6216;BME280;3141;49.234;9.326;2023-03-23T02:44:57;98851.78;;;17.60;47.81
6216;BME280;3141;49.234;9.326;2023-03-23T02:45:41;98856.31;;;17.35;48.58
6216;BME280;3141;49.234;9.326;2023-03-23T02:46:25;98852.56;;;17.43;48.14
6216;BME280;3141;49.234;9.326;2023-03-23T02:47:12;98862.97;;;17.51;47.81
6216;BME280;3141;49.234;9.326;2023-03-23T02:47:57;98851.63;;;17.55;47.60
6216;BME280;3141;49.234;9.326;2023-03-23T02:48:42;98852.06;;;17.52;47.68
6216;BME280;3141;49.234;9.326;2023-03-23T02:49:28;98854.75;;;17.52;48.18
6216;BME280;3141;49.234;9.326;2023-03-23T02:50:14;98853.72;;;17.53;47.83
6216;BME280;3141;49.234;9.326;2023-03-23T02:50:59;98856.09;;;17.61;48.22
6216;BME280;3141;49.234;9.326;2023-03-23T02:51:45;98856.16;;;17.55;48.13
6216;BME280;3141;49.234;9.326;2023-03-23T02:52:30;98855.00;;;17.44;48.37
6216;BME280;3141;49.234;9.326;2023-03-23T02:53:16;98854.13;;;17.50;48.24
6216;BME280;3141;49.234;9.326;2023-03-23T02:54:01;98848.16;;;17.55;48.26
6216;BME280;3141;49.234;9.326;2023-03-23T02:54:46;98852.97;;;17.64;47.78
6216;BME280;3141;49.234;9.326;2023-03-23T02:55:30;98852.97;;;17.64;47.61
6216;BME280;3141;49.234;9.326;2023-03-23T02:56:14;98849.84;;;17.67;47.52
6216;BME280;3141;49.234;9.326;2023-03-23T02:56:57;98853.13;;;17.69;47.61
6216;BME280;3141;49.234;9.326;2023-03-23T02:57:40;98855.19;;;17.67;47.60
6216;BME280;3141;49.234;9.326;2023-03-23T02:58:22;98859.38;;;17.63;47.56
6216;BME280;3141;49.234;9.326;2023-03-23T02:59:05;98856.84;;;17.68;47.45
6216;BME280;3141;49.234;9.326;2023-03-23T02:59:47;98858.47;;;17.69;47.50
6216;BME280;3141;49.234;9.326;2023-03-23T03:00:29;98853.66;;;17.60;47.48
6216;BME280;3141;49.234;9.326;2023-03-23T03:02:21;98855.28;;;17.61;47.32
6216;BME280;3141;49.234;9.326;2023-03-23T03:03:09;98871.22;;;17.49;48.09
6216;BME280;3141;49.234;9.326;2023-03-23T03:03:54;98852.91;;;17.53;48.26
6216;BME280;3141;49.234;9.326;2023-03-23T03:04:40;98855.63;;;17.40;48.69
6216;BME280;3141;49.234;9.326;2023-03-23T03:08:15;98858.56;;;17.63;47.63
6216;BME280;3141;49.234;9.326;2023-03-23T03:09:09;98857.72;;;17.62;47.75
6216;BME280;3141;49.234;9.326;2023-03-23T03:10:48;98849.16;;;17.54;47.94
6216;BME280;3141;49.234;9.326;2023-03-23T03:11:35;98853.53;;;17.48;47.69
6216;BME280;3141;49.234;9.326;2023-03-23T03:12:27;98847.25;;;17.61;47.49
6216;BME280;3141;49.234;9.326;2023-03-23T03:13:28;98848.38;;;17.71;46.95
6216;BME280;3141;49.234;9.326;2023-03-23T03:14:20;98851.50;;;17.68;47.23
6216;BME280;3141;49.234;9.326;2023-03-23T03:16:02;98843.34;;;17.63;48.03
6216;BME280;3141;49.234;9.326;2023-03-23T03:16:56;98844.59;;;17.61;47.64
6216;BME280;3141;49.234;9.326;2023-03-23T03:17:47;98845.88;;;17.58;47.82
6216;BME280;3141;49.234;9.326;2023-03-23T03:18:46;98844.06;;;17.52;47.89
6216;BME280;3141;49.234;9.326;2023-03-23T03:19:36;98847.09;;;17.31;48.31
6216;BME280;3141;49.234;9.326;2023-03-23T03:20:20;98843.72;;;17.42;47.88
6216;BME280;3141;49.234;9.326;2023-03-23T03:21:07;98838.97;;;17.44;47.43
6216;BME280;3141;49.234;9.326;2023-03-23T03:21:54;98838.75;;;17.46;47.42
6216;BME280;3141;49.234;9.326;2023-03-23T03:22:39;98851.22;;;17.58;47.26
6216;BME280;3141;49.234;9.326;2023-03-23T03:23:27;98850.69;;;17.68;46.98
6216;BME280;3141;49.234;9.326;2023-03-23T03:24:13;98846.66;;;17.59;47.26
6216;BME280;3141;49.234;9.326;2023-03-23T03:24:57;98846.28;;;17.55;47.52
6216;BME280;3141;49.234;9.326;2023-03-23T03:25:41;98846.88;;;17.57;47.20
6216;BME280;3141;49.234;9.326;2023-03-23T03:26:31;98844.13;;;17.64;46.93
6216;BME280;3141;49.234;9.326;2023-03-23T03:27:17;98844.97;;;17.64;46.93
6216;BME280;3141;49.234;9.326;2023-03-23T03:28:01;98844.09;;;17.70;46.94
6216;BME280;3141;49.234;9.326;2023-03-23T03:28:47;98842.03;;;17.72;47.00
6216;BME280;3141;49.234;9.326;2023-03-23T03:29:33;98838.44;;;17.78;46.82
6216;BME280;3141;49.234;9.326;2023-03-23T03:30:19;98839.50;;;17.77;46.91
6216;BME280;3141;49.234;9.326;2023-03-23T03:31:05;98847.06;;;17.80;46.95
6216;BME280;3141;49.234;9.326;2023-03-23T03:31:50;98843.25;;;17.88;46.86
6216;BME280;3141;49.234;9.326;2023-03-23T03:32:41;98850.03;;;17.90;46.73
6216;BME280;3141;49.234;9.326;2023-03-23T03:33:27;98852.94;;;17.89;46.29
6216;BME280;3141;49.234;9.326;2023-03-23T03:34:14;98852.63;;;17.79;46.86
6216;BME280;3141;49.234;9.326;2023-03-23T03:35:02;98846.84;;;17.82;46.74
6216;BME280;3141;49.234;9.326;2023-03-23T03:35:46;98848.63;;;17.70;46.58
6216;BME280;3141;49.234;9.326;2023-03-23T03:36:32;98848.47;;;17.83;46.62
6216;BME280;3141;49.234;9.326;2023-03-23T03:37:17;98853.28;;;17.74;47.41
6216;BME280;3141;49.234;9.326;2023-03-23T03:38:09;98850.63;;;17.74;47.24
6216;BME280;3141;49.234;9.326;2023-03-23T03:38:52;98852.88;;;17.77;46.87
6216;BME280;3141;49.234;9.326;2023-03-23T03:39:36;98853.13;;;17.69;46.70
6216;BME280;3141;49.234;9.326;2023-03-23T03:40:21;98852.91;;;17.71;46.80
6216;BME280;3141;49.234;9.326;2023-03-23T03:41:03;98854.72;;;17.77;47.15
6216;BME280;3141;49.234;9.326;2023-03-23T03:41:46;98855.09;;;17.80;46.72
6216;BME280;3141;49.234;9.326;2023-03-23T03:42:28;98846.31;;;17.73;46.49
6216;BME280;3141;49.234;9.326;2023-03-23T03:43:10;98851.81;;;17.78;46.75
6216;BME280;3141;49.234;9.326;2023-03-23T03:43:53;98842.59;;;17.74;46.80
6216;BME280;3141;49.234;9.326;2023-03-23T03:44:35;98843.94;;;17.65;47.32
6216;BME280;3141;49.234;9.326;2023-03-23T03:45:19;98841.38;;;17.52;47.39
6216;BME280;3141;49.234;9.326;2023-03-23T03:46:02;98852.06;;;17.52;47.52
6216;BME280;3141;49.234;9.326;2023-03-23T03:46:45;98845.53;;;17.48;46.95
6216;BME280;3141;49.234;9.326;2023-03-23T03:47:27;98846.88;;;17.57;46.94
6216;BME280;3141;49.234;9.326;2023-03-23T03:48:10;98847.84;;;17.63;46.64
6216;BME280;3141;49.234;9.326;2023-03-23T03:48:52;98841.91;;;17.61;46.72
6216;BME280;3141;49.234;9.326;2023-03-23T03:49:35;98853.19;;;17.63;46.61
6216;BME280;3141;49.234;9.326;2023-03-23T03:50:17;98844.75;;;17.66;46.52
6216;BME280;3141;49.234;9.326;2023-03-23T03:51:00;98844.69;;;17.72;46.67
6216;BME280;3141;49.234;9.326;2023-03-23T03:51:45;98840.38;;;17.71;46.64
6216;BME280;3141;49.234;9.326;2023-03-23T03:52:27;98843.72;;;17.67;46.73
6216;BME280;3141;49.234;9.326;2023-03-23T03:53:10;98845.78;;;17.65;47.09
6216;BME280;3141;49.234;9.326;2023-03-23T03:53:53;98842.88;;;17.66;46.69
6216;BME280;3141;49.234;9.326;2023-03-23T03:54:35;98841.75;;;17.56;47.55
6216;BME280;3141;49.234;9.326;2023-03-23T03:55:18;98840.94;;;17.55;47.19
6216;BME280;3141;49.234;9.326;2023-03-23T03:56:00;98835.16;;;17.58;47.00
6216;BME280;3141;49.234;9.326;2023-03-23T03:56:43;98836.94;;;17.46;47.03
6216;BME280;3141;49.234;9.326;2023-03-23T03:57:25;98835.59;;;17.55;47.04
6216;BME280;3141;49.234;9.326;2023-03-23T03:58:08;98832.28;;;17.60;46.71
6216;BME280;3141;49.234;9.326;2023-03-23T03:58:52;98841.09;;;17.60;46.42
6216;BME280;3141;49.234;9.326;2023-03-23T03:59:34;98839.16;;;17.67;46.46
6216;BME280;3141;49.234;9.326;2023-03-23T04:00:17;98845.13;;;17.69;46.30
6216;BME280;3141;49.234;9.326;2023-03-23T04:01:00;98840.38;;;17.71;46.59
6216;BME280;3141;49.234;9.326;2023-03-23T04:01:42;98846.44;;;17.60;47.17
6216;BME280;3141;49.234;9.326;2023-03-23T04:02:25;98840.81;;;17.68;47.17
6216;BME280;3141;49.234;9.326;2023-03-23T04:03:07;98838.41;;;17.60;46.71
6216;BME280;3141;49.234;9.326;2023-03-23T04:03:51;98843.66;;;17.73;46.77
6216;BME280;3141;49.234;9.326;2023-03-23T04:04:33;98846.91;;;17.75;46.34
6216;BME280;3141;49.234;9.326;2023-03-23T04:05:17;98847.22;;;17.85;46.62
6216;BME280;3141;49.234;9.326;2023-03-23T04:06:00;98843.50;;;17.68;47.07
6216;BME280;3141;49.234;9.326;2023-03-23T04:06:43;98843.25;;;17.45;47.12
6216;BME280;3141;49.234;9.326;2023-03-23T04:07:25;98848.38;;;17.53;47.06
6216;BME280;3141;49.234;9.326;2023-03-23T04:08:08;98853.59;;;17.66;46.91
6216;BME280;3141;49.234;9.326;2023-03-23T04:08:50;98845.72;;;17.71;46.28
6216;BME280;3141;49.234;9.326;2023-03-23T04:09:32;98842.03;;;17.72;46.30
6216;BME280;3141;49.234;9.326;2023-03-23T04:10:15;98846.63;;;17.83;46.15
6216;BME280;3141;49.234;9.326;2023-03-23T04:10:57;98844.09;;;17.88;46.34
6216;BME280;3141;49.234;9.326;2023-03-23T04:11:39;98852.03;;;17.77;46.72
6216;BME280;3141;49.234;9.326;2023-03-23T04:12:22;98849.22;;;17.72;46.79
6216;BME280;3141;49.234;9.326;2023-03-23T04:13:04;98844.09;;;17.70;46.71
6216;BME280;3141;49.234;9.326;2023-03-23T04:13:47;98844.50;;;17.67;46.64
6216;BME280;3141;49.234;9.326;2023-03-23T04:14:29;98856.19;;;17.73;46.96
6216;BME280;3141;49.234;9.326;2023-03-23T04:15:11;98854.03;;;17.63;46.80
6216;BME280;3141;49.234;9.326;2023-03-23T04:15:54;98858.94;;;17.66;46.48
6216;BME280;3141;49.234;9.326;2023-03-23T04:16:36;98855.72;;;17.58;46.75
6216;BME280;3141;49.234;9.326;2023-03-23T04:17:18;98850.91;;;17.66;46.58
6216;BME280;3141;49.234;9.326;2023-03-23T04:18:02;98854.03;;;17.63;46.63
6216;BME280;3141;49.234;9.326;2023-03-23T04:18:44;98855.59;;;17.71;46.48
6216;BME280;3141;49.234;9.326;2023-03-23T04:19:29;98852.91;;;17.71;46.58
6216;BME280;3141;49.234;9.326;2023-03-23T04:20:14;98853.88;;;17.76;46.67
6216;BME280;3141;49.234;9.326;2023-03-23T04:21:01;98854.81;;;17.64;47.10
6216;BME280;3141;49.234;9.326;2023-03-23T04:21:44;98848.25;;;17.66;46.85
6216;BME280;3141;49.234;9.326;2023-03-23T04:22:31;98849.94;;;17.61;47.15
6216;BME280;3141;49.234;9.326;2023-03-23T04:23:17;98854.63;;;17.65;47.20